createdAt,value
2024-01-21T00:01:45.193Z,55.45
2024-01-21T00:04:13.497Z,63.67
2024-01-21T00:06:40.919Z,61.92
2024-01-21T00:09:08.064Z,42.10
2024-01-21T00:11:35.907Z,38.67
2024-01-21T00:14:03.189Z,46.13
2024-01-21T00:16:30.404Z,47.17
2024-01-21T00:18:57.548Z,43.13
2024-01-21T00:21:24.793Z,47.83
2024-01-21T00:23:51.912Z,45.07
2024-01-21T00:26:19.071Z,47.58
2024-01-21T00:28:46.342Z,47.60
2024-01-21T00:31:13.442Z,46.47
2024-01-21T00:33:41.333Z,50.38
2024-01-21T00:36:09.709Z,47.15
2024-01-21T00:38:36.966Z,49.20
2024-01-21T00:41:04.586Z,48.78
2024-01-21T00:43:32.278Z,32.15
2024-01-21T00:45:59.345Z,33.00
2024-01-21T00:48:26.828Z,27.02
2024-01-21T00:50:54.175Z,27.73
2024-01-21T00:53:21.741Z,35.30
2024-01-21T00:55:48.858Z,30.17
2024-01-21T00:58:18.065Z,24.27
2024-01-21T01:00:45.550Z,40.20
2024-01-21T01:03:13.118Z,44.60
2024-01-21T01:05:40.357Z,32.08
2024-01-21T01:08:07.954Z,22.23
2024-01-21T01:10:35.024Z,20.23
2024-01-21T01:13:03.210Z,37.45
2024-01-21T01:15:30.306Z,40.72
2024-01-21T01:17:58.306Z,27.25
2024-01-21T01:20:25.394Z,49.92
2024-01-21T01:23:01.864Z,52.00
2024-01-21T01:25:29.458Z,49.47
2024-01-21T01:27:56.602Z,52.22
2024-01-21T01:30:24.516Z,46.25
2024-01-21T01:32:51.753Z,47.63
2024-01-21T01:35:19.080Z,38.17
2024-01-21T01:37:46.284Z,42.05
2024-01-21T01:40:19.117Z,35.50
2024-01-21T01:42:46.742Z,35.80
2024-01-21T01:45:13.835Z,45.05
2024-01-21T01:47:41.454Z,37.38
2024-01-21T01:50:08.996Z,20.37
2024-01-21T01:52:36.512Z,17.05
2024-01-21T01:55:03.645Z,14.97
2024-01-21T01:57:32.145Z,14.23
2024-01-21T01:59:59.205Z,16.55
2024-01-21T02:02:26.675Z,18.30
2024-01-21T02:05:06.380Z,16.00
2024-01-21T02:07:37.536Z,15.50
2024-01-21T02:10:05.851Z,17.13
2024-01-21T02:12:32.986Z,16.98
2024-01-21T02:15:00.739Z,15.85
2024-01-21T02:17:27.998Z,17.67
2024-01-21T02:19:55.660Z,17.52
2024-01-21T02:22:26.070Z,16.45
2024-01-21T02:24:53.647Z,14.43
2024-01-21T02:27:20.754Z,14.32
2024-01-21T02:29:48.540Z,13.17
2024-01-21T02:32:15.574Z,15.15
2024-01-21T02:34:43.070Z,16.27
2024-01-21T02:37:10.479Z,15.37
2024-01-21T02:39:37.984Z,15.27
2024-01-21T02:42:05.857Z,15.98
2024-01-21T02:44:33.368Z,15.87
2024-01-21T02:47:00.651Z,13.03
2024-01-21T02:49:30.452Z,12.70
2024-01-21T02:51:58.834Z,14.48
2024-01-21T02:54:26.847Z,13.80
2024-01-21T02:56:54.051Z,12.02
2024-01-21T02:59:22.038Z,13.23
2024-01-21T03:01:49.121Z,12.90
2024-01-21T03:04:16.454Z,12.80
2024-01-21T03:06:44.436Z,12.48
2024-01-21T03:09:11.909Z,14.05
2024-01-21T03:11:40.007Z,10.82
2024-01-21T03:14:09.106Z,12.65
2024-01-21T03:16:36.202Z,11.43
2024-01-21T03:19:04.021Z,13.15
2024-01-21T03:21:31.092Z,12.02
2024-01-21T03:23:58.750Z,11.73
2024-01-21T03:26:25.788Z,11.27
2024-01-21T03:28:53.102Z,12.77
2024-01-21T03:31:23.365Z,11.15
2024-01-21T03:33:51.008Z,10.80
2024-01-21T03:36:18.469Z,10.27
2024-01-21T03:38:47.168Z,10.45
2024-01-21T03:41:14.202Z,8.50
2024-01-21T03:43:41.869Z,9.93
2024-01-21T03:46:08.946Z,9.98
2024-01-21T03:48:37.122Z,8.70
2024-01-21T03:51:05.247Z,10.25
2024-01-21T03:53:32.531Z,10.35
2024-01-21T03:56:00.163Z,10.48
2024-01-21T03:58:27.511Z,8.30
2024-01-21T04:00:54.639Z,11.30
2024-01-21T04:03:22.572Z,9.30
2024-01-21T04:05:49.834Z,9.02
2024-01-21T04:08:17.591Z,11.60
2024-01-21T04:10:44.682Z,8.80
2024-01-21T04:13:12.222Z,8.70
2024-01-21T04:15:39.739Z,8.68
2024-01-21T04:18:07.245Z,9.90
2024-01-21T04:20:34.617Z,9.50
2024-01-21T04:23:02.101Z,8.68
2024-01-21T04:25:29.114Z,9.50
2024-01-21T04:27:58.616Z,9.98
2024-01-21T04:30:25.927Z,7.82
2024-01-21T04:32:53.632Z,8.98
2024-01-21T04:35:20.714Z,9.27
2024-01-21T04:37:48.051Z,8.40
2024-01-21T04:40:15.176Z,8.00
2024-01-21T04:42:42.496Z,8.63
2024-01-21T04:45:12.011Z,8.18
2024-01-21T04:47:39.793Z,9.60
2024-01-21T04:50:07.484Z,7.90
2024-01-21T04:52:34.604Z,8.57
2024-01-21T04:55:01.861Z,8.55
2024-01-21T04:57:29.317Z,9.80
2024-01-21T04:59:56.635Z,10.48
2024-01-21T05:02:23.682Z,10.70
2024-01-21T05:04:50.823Z,25.67
2024-01-21T05:07:17.949Z,27.88
2024-01-21T05:09:45.139Z,30.40
2024-01-21T05:12:12.510Z,37.67
2024-01-21T05:14:39.857Z,32.65
2024-01-21T05:17:07.514Z,38.78
2024-01-21T05:19:34.649Z,37.60
2024-01-21T05:22:01.817Z,32.92
2024-01-21T05:24:29.032Z,37.90
2024-01-21T05:26:56.150Z,33.72
2024-01-21T05:29:23.264Z,40.97
2024-01-21T05:31:50.377Z,36.67
2024-01-21T05:34:17.528Z,36.50
2024-01-21T05:36:44.742Z,42.80
2024-01-21T05:39:11.946Z,38.92
2024-01-21T05:41:39.056Z,32.85
2024-01-21T05:44:06.203Z,23.92
2024-01-21T05:46:34.161Z,19.13
2024-01-21T05:49:01.355Z,16.08
2024-01-21T05:51:28.522Z,12.00
2024-01-21T05:53:55.626Z,10.07
2024-01-21T05:56:23.425Z,9.80
2024-01-21T05:58:50.706Z,10.43
2024-01-21T06:01:17.925Z,11.98
2024-01-21T06:03:45.228Z,11.40
2024-01-21T06:06:12.410Z,10.10
2024-01-21T06:08:39.555Z,11.50
2024-01-21T06:11:06.604Z,12.57
2024-01-21T06:13:33.701Z,10.95
2024-01-21T06:16:02.747Z,10.98
2024-01-21T06:18:30.625Z,10.98
2024-01-21T06:20:57.816Z,11.63
2024-01-21T06:23:24.947Z,9.38
2024-01-21T06:25:52.458Z,11.65
2024-01-21T06:28:19.572Z,12.40
2024-01-21T06:30:47.038Z,10.27
2024-01-21T06:33:14.246Z,10.93
2024-01-21T06:35:41.553Z,11.85
2024-01-21T06:38:09.326Z,11.45
2024-01-21T06:40:36.454Z,11.40
2024-01-21T06:43:04.306Z,11.98
2024-01-21T06:45:31.355Z,12.40
2024-01-21T06:47:59.334Z,12.23
2024-01-21T06:50:28.870Z,9.70
2024-01-21T06:52:56.511Z,10.27
2024-01-21T06:55:24.162Z,11.80
2024-01-21T06:57:51.648Z,10.30
2024-01-21T07:00:19.907Z,9.63
2024-01-21T07:02:47.383Z,10.83
2024-01-21T07:05:14.581Z,11.32
2024-01-21T07:07:41.939Z,11.68
2024-01-21T07:10:09.504Z,9.43
2024-01-21T07:12:36.867Z,10.30
2024-01-21T07:15:04.936Z,10.13
2024-01-21T07:17:32.002Z,10.63
2024-01-21T07:19:59.901Z,10.00
2024-01-21T07:22:27.029Z,10.77
2024-01-21T07:24:54.984Z,10.10
2024-01-21T07:27:23.078Z,10.35
2024-01-21T07:29:50.443Z,10.20
2024-01-21T07:32:17.748Z,10.07
2024-01-21T07:34:45.344Z,9.80
2024-01-21T07:37:12.988Z,12.07
2024-01-21T07:39:40.843Z,10.15
2024-01-21T07:42:07.974Z,9.98
2024-01-21T07:44:35.616Z,10.10
2024-01-21T07:47:02.887Z,10.90
2024-01-21T07:49:30.489Z,11.38
2024-01-21T07:51:57.612Z,11.40
2024-01-21T07:54:25.648Z,10.48
2024-01-21T07:56:52.715Z,10.40
2024-01-21T07:59:20.164Z,11.15
2024-01-21T08:01:47.205Z,11.48
2024-01-21T08:04:15.138Z,17.40
2024-01-21T08:06:43.239Z,15.43
2024-01-21T08:09:10.944Z,20.73
2024-01-21T08:11:38.461Z,22.27
2024-01-21T08:14:05.936Z,22.37
2024-01-21T08:16:33.540Z,32.28
2024-01-21T08:19:00.805Z,27.38
2024-01-21T08:21:28.029Z,32.63
2024-01-21T08:23:55.154Z,27.83
2024-01-21T08:26:22.264Z,31.00
2024-01-21T08:28:49.345Z,27.88
2024-01-21T08:31:17.259Z,20.25
2024-01-21T08:33:44.535Z,26.55
2024-01-21T08:36:12.148Z,25.65
2024-01-21T08:38:40.204Z,25.20
2024-01-21T08:41:07.913Z,28.85
2024-01-21T08:43:35.420Z,26.40
2024-01-21T08:46:03.296Z,25.83
2024-01-21T08:48:30.724Z,26.00
2024-01-21T08:50:58.937Z,26.45
2024-01-21T08:53:26.364Z,28.88
2024-01-21T08:55:53.892Z,27.55
2024-01-21T08:58:20.938Z,25.90
2024-01-21T09:00:48.291Z,24.80
2024-01-21T09:03:16.476Z,25.55
2024-01-21T09:05:43.960Z,26.83
2024-01-21T09:08:11.157Z,24.67
2024-01-21T09:10:39.084Z,25.02
2024-01-21T09:13:07.025Z,32.95
2024-01-21T09:15:34.974Z,32.05
2024-01-21T09:18:02.179Z,35.25
2024-01-21T09:20:30.079Z,34.72
2024-01-21T09:22:57.341Z,34.30
2024-01-21T09:25:25.102Z,32.38
2024-01-21T09:27:52.954Z,27.13
2024-01-21T09:30:20.563Z,29.98
2024-01-21T09:32:47.970Z,25.20
2024-01-21T09:35:15.587Z,25.90
2024-01-21T09:37:43.262Z,25.70
2024-01-21T09:40:11.722Z,26.95
2024-01-21T09:42:39.478Z,25.58
2024-01-21T09:45:08.860Z,21.80
2024-01-21T09:47:38.908Z,28.08
2024-01-21T09:50:06.744Z,28.88
2024-01-21T09:52:34.398Z,9.00
2024-01-21T09:55:01.505Z,7.57
2024-01-21T09:57:29.204Z,8.25
2024-01-21T09:59:56.887Z,9.65
2024-01-21T10:02:25.853Z,9.60
2024-01-21T10:04:53.079Z,9.25
2024-01-21T10:07:20.398Z,10.97
2024-01-21T10:09:56.112Z,9.90
2024-01-21T10:12:26.522Z,9.25
2024-01-21T10:14:54.892Z,9.00
2024-01-21T10:17:26.789Z,9.23
2024-01-21T10:19:59.771Z,11.43
2024-01-21T10:22:27.308Z,9.85
2024-01-21T10:24:54.676Z,9.90
2024-01-21T10:27:22.320Z,8.85
2024-01-21T10:29:49.549Z,10.75
2024-01-21T10:32:19.108Z,7.97
2024-01-21T10:34:51.908Z,7.93
2024-01-21T10:37:19.756Z,11.00
2024-01-21T10:39:49.184Z,8.40
2024-01-21T10:42:17.254Z,8.85
2024-01-21T10:44:48.005Z,7.90
2024-01-21T10:47:17.418Z,9.23
2024-01-21T10:49:46.999Z,8.88
2024-01-21T10:52:15.722Z,10.60
2024-01-21T10:54:44.474Z,10.38
2024-01-21T10:57:11.583Z,9.30
2024-01-21T10:59:40.645Z,8.18
2024-01-21T11:02:10.197Z,10.02
2024-01-21T11:04:37.878Z,9.48
2024-01-21T11:07:07.586Z,9.32
2024-01-21T11:09:37.520Z,9.37
2024-01-21T11:12:05.042Z,7.82
2024-01-21T11:14:34.192Z,7.03
2024-01-21T11:17:05.204Z,8.43
2024-01-21T11:19:51.231Z,9.57
2024-01-21T11:22:21.961Z,8.27
2024-01-21T11:24:49.606Z,8.68
2024-01-21T11:27:28.136Z,9.60
2024-01-21T11:30:00.340Z,9.68
2024-01-21T11:32:31.103Z,9.45
2024-01-21T11:35:14.171Z,7.10
2024-01-21T11:37:42.264Z,6.23
2024-01-21T11:40:10.449Z,8.25
2024-01-21T11:42:39.020Z,8.93
2024-01-21T11:45:07.201Z,10.70
2024-01-21T11:47:34.513Z,8.35
2024-01-21T11:50:04.442Z,11.02
2024-01-21T11:52:32.916Z,7.90
2024-01-21T11:55:00.585Z,9.88
2024-01-21T11:57:29.600Z,11.27
2024-01-21T11:59:56.767Z,9.15
2024-01-21T12:02:25.861Z,8.52
2024-01-21T12:04:56.564Z,11.50
2024-01-21T12:07:27.153Z,8.65
2024-01-21T12:09:55.075Z,9.95
2024-01-21T12:12:22.970Z,9.73
2024-01-21T12:14:52.742Z,9.60
2024-01-21T12:17:21.559Z,9.25
2024-01-21T12:19:48.913Z,8.27
2024-01-21T12:22:17.361Z,12.50
2024-01-21T12:24:44.505Z,9.95
2024-01-21T12:27:15.770Z,10.05
2024-01-21T12:29:43.415Z,8.30
2024-01-21T12:32:11.244Z,10.60
2024-01-21T12:34:39.810Z,9.02
2024-01-21T12:37:08.738Z,15.23
2024-01-21T12:39:36.018Z,12.05
2024-01-21T12:42:03.469Z,9.33
2024-01-21T12:44:30.687Z,10.48
2024-01-21T12:46:58.452Z,12.60
2024-01-21T12:49:25.676Z,11.90
2024-01-21T12:51:52.868Z,66.47
2024-01-21T12:54:20.145Z,28.02
2024-01-21T12:56:47.210Z,13.48
2024-01-21T12:59:15.469Z,14.57
2024-01-21T13:01:42.928Z,10.48
2024-01-21T13:04:10.337Z,13.18
2024-01-21T13:06:37.792Z,8.02
2024-01-21T13:09:05.178Z,9.98
2024-01-21T13:11:32.275Z,10.00
2024-01-21T13:13:59.767Z,8.95
2024-01-21T13:16:26.930Z,9.65
2024-01-21T13:18:54.103Z,11.23
2024-01-21T13:21:22.485Z,10.50
2024-01-21T13:23:50.402Z,11.65
2024-01-21T13:26:17.761Z,12.15
2024-01-21T13:29:10.876Z,8.70
2024-01-21T13:31:39.653Z,8.88
2024-01-21T13:34:07.095Z,9.40
2024-01-21T13:36:35.859Z,8.88
2024-01-21T13:39:03.126Z,8.52
2024-01-21T13:41:30.236Z,7.93
2024-01-21T13:43:57.358Z,8.40
2024-01-21T13:46:24.416Z,8.13
2024-01-21T13:48:51.646Z,8.30
2024-01-21T13:51:18.830Z,8.10
2024-01-21T13:53:48.106Z,11.55
2024-01-21T13:56:16.130Z,12.27
2024-01-21T13:58:43.324Z,11.48
2024-01-21T14:01:10.892Z,15.88
2024-01-21T14:03:38.179Z,14.05
2024-01-21T14:06:05.602Z,10.38
2024-01-21T14:08:32.831Z,11.57
2024-01-21T14:10:59.904Z,12.20
2024-01-21T14:13:27.433Z,16.63
2024-01-21T14:15:54.578Z,16.73
2024-01-21T14:18:23.546Z,11.57
2024-01-21T14:20:50.724Z,14.25
2024-01-21T14:23:17.920Z,12.45
2024-01-21T14:25:45.761Z,11.93
2024-01-21T14:28:13.184Z,14.30
2024-01-21T14:30:41.115Z,15.88
2024-01-21T14:33:08.407Z,17.50
2024-01-21T14:35:35.658Z,12.57
2024-01-21T14:38:03.094Z,9.05
2024-01-21T14:40:30.187Z,18.02
2024-01-21T14:42:58.642Z,17.55
2024-01-21T14:45:26.207Z,19.20
2024-01-21T14:47:53.598Z,12.95
2024-01-21T14:50:21.114Z,13.82
2024-01-21T14:52:49.323Z,19.00
2024-01-21T14:55:17.108Z,19.35
2024-01-21T14:57:46.398Z,18.88
2024-01-21T15:00:15.347Z,17.83
2024-01-21T15:02:43.054Z,23.58
2024-01-21T15:05:10.659Z,22.73
2024-01-21T15:07:42.614Z,22.48
2024-01-21T15:10:15.079Z,21.30
2024-01-21T15:12:42.281Z,24.70
2024-01-21T15:15:19.010Z,21.40
2024-01-21T15:17:48.373Z,24.05
2024-01-21T15:20:15.835Z,23.10
2024-01-21T15:22:45.220Z,24.10
2024-01-21T15:25:12.944Z,20.17
2024-01-21T15:27:40.110Z,18.05
2024-01-21T15:30:08.315Z,21.90
2024-01-21T15:32:35.959Z,21.25
2024-01-21T15:35:03.327Z,19.63
2024-01-21T15:37:30.689Z,22.02
2024-01-21T15:39:59.070Z,26.77
2024-01-21T15:42:26.402Z,22.98
2024-01-21T15:44:53.589Z,23.45
2024-01-21T15:47:20.706Z,18.57
2024-01-21T15:49:48.248Z,21.00
2024-01-21T15:52:15.447Z,19.05
2024-01-21T15:54:42.623Z,17.88
2024-01-21T15:57:09.858Z,18.80
2024-01-21T15:59:37.009Z,24.30
2024-01-21T16:02:04.380Z,18.80
2024-01-21T16:04:31.673Z,23.70
2024-01-21T16:06:58.845Z,24.13
2024-01-21T16:09:26.070Z,19.10
2024-01-21T16:11:53.428Z,19.33
2024-01-21T16:14:20.614Z,21.67
2024-01-21T16:16:48.106Z,21.77
2024-01-21T16:19:16.116Z,19.08
2024-01-21T16:21:43.785Z,20.25
2024-01-21T16:24:14.947Z,20.83
2024-01-21T16:26:42.719Z,19.20
2024-01-21T16:29:10.665Z,22.27
2024-01-21T16:31:39.528Z,23.80
2024-01-21T16:34:09.736Z,19.23
2024-01-21T16:36:38.631Z,22.17
2024-01-21T16:39:07.723Z,18.42
2024-01-21T16:41:35.625Z,23.25
2024-01-21T16:44:03.585Z,22.77
2024-01-21T16:46:31.087Z,22.42
2024-01-21T16:48:58.923Z,20.65
2024-01-21T16:51:44.334Z,20.80
2024-01-21T16:54:13.809Z,19.45
2024-01-21T16:56:42.720Z,20.27
2024-01-21T16:59:11.259Z,20.55
2024-01-21T17:01:46.837Z,24.27
2024-01-21T17:04:14.627Z,23.90
2024-01-21T17:06:44.761Z,23.00
2024-01-21T17:09:12.065Z,22.25
2024-01-21T17:11:45.155Z,22.60
2024-01-21T17:14:18.905Z,21.87
2024-01-21T17:16:46.237Z,23.80
2024-01-21T17:19:15.194Z,25.42
2024-01-21T17:21:43.536Z,25.37
2024-01-21T17:24:13.930Z,30.73
2024-01-21T17:26:43.229Z,31.75
2024-01-21T17:29:10.672Z,30.47
2024-01-21T17:31:38.041Z,28.20
2024-01-21T17:34:06.218Z,31.52
2024-01-21T17:36:33.349Z,26.85
2024-01-21T17:39:04.308Z,25.33
2024-01-21T17:41:32.499Z,25.13
2024-01-21T17:43:59.618Z,22.83
2024-01-21T17:46:27.140Z,28.00
2024-01-21T17:48:55.115Z,34.20
2024-01-21T17:51:23.061Z,35.45
2024-01-21T17:53:50.152Z,43.47
2024-01-21T17:56:18.103Z,43.35
2024-01-21T17:58:45.372Z,46.88
2024-01-21T18:01:13.144Z,32.92
2024-01-21T18:03:40.931Z,29.25
2024-01-21T18:06:09.478Z,42.90
2024-01-21T18:08:36.949Z,32.60
2024-01-21T18:11:04.918Z,33.35
2024-01-21T18:13:33.259Z,29.50
2024-01-21T18:16:00.861Z,24.33
2024-01-21T18:18:28.146Z,26.15
2024-01-21T18:20:56.239Z,24.73
2024-01-21T18:23:23.419Z,25.13
2024-01-21T18:25:50.566Z,29.58
2024-01-21T18:28:17.708Z,27.42
2024-01-21T18:30:44.951Z,32.90
2024-01-21T18:33:12.562Z,40.75
2024-01-21T18:35:39.943Z,37.65
2024-01-21T18:38:07.628Z,59.03
2024-01-21T18:40:34.940Z,46.35
2024-01-21T18:43:02.062Z,32.00
2024-01-21T18:45:29.181Z,34.67
2024-01-21T18:47:58.573Z,45.28
2024-01-21T18:50:25.904Z,51.95
2024-01-21T18:52:53.035Z,60.58
2024-01-21T18:55:20.229Z,69.97
2024-01-21T18:57:47.322Z,71.32
2024-01-21T19:00:15.032Z,49.42
2024-01-21T19:02:42.202Z,63.63
2024-01-21T19:05:09.931Z,82.03
2024-01-21T19:07:42.357Z,90.22
2024-01-21T19:10:12.197Z,96.03
2024-01-21T19:12:39.343Z,87.47
2024-01-21T19:15:07.430Z,73.85
2024-01-21T19:17:36.544Z,81.57
2024-01-21T19:20:04.157Z,72.57
2024-01-21T19:22:31.417Z,79.75
2024-01-21T19:24:58.554Z,83.97
2024-01-21T19:27:26.886Z,88.47
2024-01-21T19:29:54.079Z,100.05
2024-01-21T19:32:21.272Z,112.82
2024-01-21T19:34:48.575Z,115.20
2024-01-21T19:37:15.701Z,90.22
2024-01-21T19:39:42.874Z,93.93
2024-01-21T19:42:10.060Z,84.93
2024-01-21T19:44:37.225Z,80.97
2024-01-21T19:47:04.776Z,77.60
2024-01-21T19:49:32.033Z,76.93
2024-01-21T19:52:00.526Z,75.25
2024-01-21T19:54:27.886Z,74.07
2024-01-21T19:56:55.401Z,75.93
2024-01-21T19:59:22.492Z,71.20
2024-01-21T20:01:49.621Z,75.20
2024-01-21T20:04:16.885Z,72.88
2024-01-21T20:06:44.397Z,72.22
2024-01-21T20:09:12.920Z,70.53
2024-01-21T20:11:40.619Z,69.05
2024-01-21T20:14:10.245Z,77.85
2024-01-21T20:16:37.603Z,76.68
2024-01-21T20:19:04.785Z,72.03
2024-01-21T20:21:32.410Z,70.63
2024-01-21T20:23:59.751Z,71.73
2024-01-21T20:26:27.076Z,69.57
2024-01-21T20:28:54.230Z,61.55
2024-01-21T20:31:22.801Z,55.40
2024-01-21T20:33:53.156Z,53.45
2024-01-21T20:36:20.326Z,59.67
2024-01-21T20:38:47.823Z,58.72
2024-01-21T20:41:16.302Z,53.88
2024-01-21T20:43:44.621Z,59.97
2024-01-21T20:46:15.554Z,60.55
2024-01-21T20:48:44.230Z,55.20
2024-01-21T20:51:11.774Z,59.25
2024-01-21T20:53:40.068Z,48.40
2024-01-21T20:56:07.982Z,41.08
2024-01-21T20:58:35.579Z,44.92
2024-01-21T21:01:10.132Z,46.63
2024-01-21T21:03:41.375Z,51.08
2024-01-21T21:06:08.947Z,52.63
2024-01-21T21:08:37.213Z,54.50
2024-01-21T21:11:05.150Z,51.03
2024-01-21T21:13:32.379Z,56.27
2024-01-21T21:15:59.546Z,58.03
2024-01-21T21:18:26.854Z,60.65
2024-01-21T21:20:54.461Z,57.97
2024-01-21T21:23:25.280Z,58.80
2024-01-21T21:25:52.556Z,57.95
2024-01-21T21:28:19.754Z,54.58
2024-01-21T21:30:46.936Z,52.50
2024-01-21T21:33:14.127Z,55.67
2024-01-21T21:35:42.399Z,56.20
2024-01-21T21:38:09.633Z,53.95
2024-01-21T21:40:36.795Z,56.50
2024-01-21T21:43:04.001Z,51.60
2024-01-21T21:45:31.173Z,50.90
2024-01-21T21:47:58.755Z,50.03
2024-01-21T21:50:27.706Z,49.42
2024-01-21T21:52:54.856Z,50.40
2024-01-21T21:55:22.006Z,48.70
2024-01-21T21:57:49.343Z,47.05
2024-01-21T22:00:16.844Z,46.17
2024-01-21T22:02:44.164Z,47.10
2024-01-21T22:05:14.446Z,49.35
2024-01-21T22:07:41.593Z,45.85
2024-01-21T22:10:09.621Z,54.30
2024-01-21T22:12:36.828Z,52.13
2024-01-21T22:15:05.632Z,53.47
2024-01-21T22:17:32.858Z,55.05
2024-01-21T22:20:00.348Z,52.80
2024-01-21T22:22:27.419Z,50.30
2024-01-21T22:24:54.559Z,49.70
2024-01-21T22:27:21.731Z,53.13
2024-01-21T22:29:48.919Z,49.92
2024-01-21T22:32:16.208Z,53.03
2024-01-21T22:34:43.331Z,58.13
2024-01-21T22:37:11.135Z,60.80
2024-01-21T22:39:38.273Z,59.20
2024-01-21T22:42:05.619Z,60.58
2024-01-21T22:44:33.116Z,62.28
2024-01-21T22:47:00.293Z,73.23
2024-01-21T22:49:31.107Z,70.55
2024-01-21T22:51:59.028Z,82.25
2024-01-21T22:54:26.532Z,87.95
2024-01-21T22:56:53.701Z,88.00
2024-01-21T22:59:20.821Z,88.80
2024-01-21T23:01:50.708Z,83.60
2024-01-21T23:04:18.473Z,92.82
2024-01-21T23:06:45.709Z,94.43
2024-01-21T23:09:13.942Z,92.13
2024-01-21T23:11:41.594Z,90.47
2024-01-21T23:14:09.734Z,87.18
2024-01-21T23:16:36.789Z,88.55
2024-01-21T23:19:04.281Z,86.45
2024-01-21T23:21:31.663Z,75.30
2024-01-21T23:23:58.933Z,86.53
2024-01-21T23:26:26.326Z,84.10
2024-01-21T23:28:53.393Z,85.90
2024-01-21T23:31:20.856Z,86.80
2024-01-21T23:33:48.387Z,92.20
2024-01-21T23:36:15.706Z,88.38
2024-01-21T23:38:43.531Z,88.43
2024-01-21T23:41:10.626Z,92.80
2024-01-21T23:43:37.990Z,109.25
2024-01-21T23:46:06.105Z,119.00
2024-01-21T23:48:34.753Z,152.18
2024-01-21T23:51:02.578Z,208.93
2024-01-21T23:53:30.293Z,133.20
2024-01-21T23:56:01.238Z,263.80
2024-01-21T23:58:28.807Z,242.20
